K-storm — V2DV8 — position and weather

sailwx.info

Track history (hours):
 
Tides and Currents Weather Stations Pressure Air Temp Water Temp Dewpoint Dewpoint Depression Visibility Wind Speed Wind Dir Waves Ship Positions

K-storm

Last reported at 2015-Mar-05 15:23 UTC. Time now 2015-Mar-05 16:06 UTC.
Position N 26°04' W 080°07'.

Length 139 m; draft 7.4 m.

Type: Ship. MMSI: 305350000.

Date/timePositionNaut miles runAvg speedWind from/ knotsBaromVisibWave heightAir tempDewpointWater temp
2015-Mar-05 15:23N 26°04' W 080°07'0 0.0
2015-Mar-05 14:32N 26°04' W 080°07'0 0.0
2015-Mar-05 13:25N 26°04' W 080°07'0 0.0
2015-Mar-05 12:31N 26°04' W 080°07'0 0.0
2015-Mar-05 11:27N 26°04' W 080°07'0 0.4
2015-Mar-05 10:33N 26°04' W 080°07'8 7.9
2015-Mar-05 09:33N 26°01' W 079°59'1212.6
2015-Mar-05 08:33N 25°49' W 079°58'1413.9
2015-Mar-05 07:33N 25°35' W 079°58'  
2015-Feb-27 19:33N 25°33' W 080°01'1212.4
2015-Feb-27 18:33N 25°45' W 080°02'1313.5
2015-Feb-27 17:33N 25°58' W 080°03'7 7.1
2015-Feb-27 16:33N 26°04' W 080°07'0 0.1
2015-Feb-27 15:28N 26°04' W 080°07'0 0.0
2015-Feb-27 14:22N 26°04' W 080°07'0 0.0
2015-Feb-27 13:30N 26°04' W 080°07'0 0.0
2015-Feb-27 12:24N 26°04' W 080°07'0 0.0
2015-Feb-27 11:32N 26°04' W 080°07'0 0.0
2015-Feb-27 10:26N 26°04' W 080°07'0 0.0
2015-Feb-27 09:32N 26°04' W 080°07'0 0.0
2015-Feb-27 08:28N 26°04' W 080°07'0 0.0
2015-Feb-27 07:22N 26°04' W 080°07'0 0.0
2015-Feb-27 06:30N 26°04' W 080°07'0 0.0
2015-Feb-27 05:33N 26°04' W 080°07'0 0.0
2015-Feb-27 04:32N 26°04' W 080°07'0 0.0
2015-Feb-27 03:20N 26°04' W 080°07'0 0.0
2015-Feb-27 02:32N 26°04' W 080°07'0 0.0
2015-Feb-27 01:28N 26°04' W 080°07'0 0.0
2015-Feb-27 00:31N 26°04' W 080°07'0 0.0
2015-Feb-26 23:30N 26°04' W 080°07'0 0.0
2015-Feb-26 22:33N 26°04' W 080°07'0 0.0
2015-Feb-26 21:32N 26°04' W 080°07'0 0.0
2015-Feb-26 20:20N 26°04' W 080°07'0 0.0
2015-Feb-26 19:32N 26°04' W 080°07'0 0.0
2015-Feb-26 18:28N 26°04' W 080°07'0 0.0
2015-Feb-26 17:31N 26°04' W 080°07'0 0.0
2015-Feb-26 16:24N 26°04' W 080°07'0 0.0
2015-Feb-26 15:33N 26°04' W 080°07'0 0.0
2015-Feb-26 14:32N 26°04' W 080°07'0 0.0
2015-Feb-26 13:23N 26°04' W 080°07'0 0.0
2015-Feb-26 12:29N 26°04' W 080°07'0 0.0
2015-Feb-26 11:28N 26°04' W 080°07'0 0.0
2015-Feb-26 10:31N 26°04' W 080°07'4 4.0
2015-Feb-26 09:33N 26°05' W 080°03'1313.2
2015-Feb-26 08:33N 25°58' W 079°51'1414.1
2015-Feb-26 07:33N 25°46' W 079°43'4214.0
2015-Feb-26 04:32N 25°04' W 079°37'1413.2
2015-Feb-26 03:30N 24°50' W 079°37'1313.5
2015-Feb-26 02:33N 24°43' W 079°48'  
Track history (hours):
 
Tides and Currents Weather Stations Pressure Air Temp Water Temp Dewpoint Dewpoint Depression Visibility Wind Speed Wind Dir Waves Ship Positions

K-storm

Last reported at 2015-Mar-05 15:23 UTC. Time now 2015-Mar-05 16:06 UTC.
Position N 26°04' W 080°07'.

Length 139 m; draft 7.4 m.

Type: Ship. MMSI: 305350000.

Date/timePositionNaut miles runAvg speedWind from/ knotsBaromVisibWave heightAir tempDewpointWater temp
2015-Mar-05 15:23N 26°04' W 080°07'0 0.0
2015-Mar-05 14:32N 26°04' W 080°07'0 0.0
2015-Mar-05 13:25N 26°04' W 080°07'0 0.0
2015-Mar-05 12:31N 26°04' W 080°07'0 0.0
2015-Mar-05 11:27N 26°04' W 080°07'0 0.4
2015-Mar-05 10:33N 26°04' W 080°07'8 7.9
2015-Mar-05 09:33N 26°01' W 079°59'1212.6
2015-Mar-05 08:33N 25°49' W 079°58'1413.9
2015-Mar-05 07:33N 25°35' W 079°58'  
2015-Feb-27 19:33N 25°33' W 080°01'1212.4
2015-Feb-27 18:33N 25°45' W 080°02'1313.5
2015-Feb-27 17:33N 25°58' W 080°03'7 7.1
2015-Feb-27 16:33N 26°04' W 080°07'0 0.1
2015-Feb-27 15:28N 26°04' W 080°07'0 0.0
2015-Feb-27 14:22N 26°04' W 080°07'0 0.0
2015-Feb-27 13:30N 26°04' W 080°07'0 0.0
2015-Feb-27 12:24N 26°04' W 080°07'0 0.0
2015-Feb-27 11:32N 26°04' W 080°07'0 0.0
2015-Feb-27 10:26N 26°04' W 080°07'0 0.0
2015-Feb-27 09:32N 26°04' W 080°07'0 0.0
2015-Feb-27 08:28N 26°04' W 080°07'0 0.0
2015-Feb-27 07:22N 26°04' W 080°07'0 0.0
2015-Feb-27 06:30N 26°04' W 080°07'0 0.0
2015-Feb-27 05:33N 26°04' W 080°07'0 0.0
2015-Feb-27 04:32N 26°04' W 080°07'0 0.0
2015-Feb-27 03:20N 26°04' W 080°07'0 0.0
2015-Feb-27 02:32N 26°04' W 080°07'0 0.0
2015-Feb-27 01:28N 26°04' W 080°07'0 0.0
2015-Feb-27 00:31N 26°04' W 080°07'0 0.0
2015-Feb-26 23:30N 26°04' W 080°07'0 0.0
2015-Feb-26 22:33N 26°04' W 080°07'0 0.0
2015-Feb-26 21:32N 26°04' W 080°07'0 0.0
2015-Feb-26 20:20N 26°04' W 080°07'0 0.0
2015-Feb-26 19:32N 26°04' W 080°07'0 0.0
2015-Feb-26 18:28N 26°04' W 080°07'0 0.0
2015-Feb-26 17:31N 26°04' W 080°07'0 0.0
2015-Feb-26 16:24N 26°04' W 080°07'0 0.0
2015-Feb-26 15:33N 26°04' W 080°07'0 0.0
2015-Feb-26 14:32N 26°04' W 080°07'0 0.0
2015-Feb-26 13:23N 26°04' W 080°07'0 0.0
2015-Feb-26 12:29N 26°04' W 080°07'0 0.0
2015-Feb-26 11:28N 26°04' W 080°07'0 0.0
2015-Feb-26 10:31N 26°04' W 080°07'4 4.0
2015-Feb-26 09:33N 26°05' W 080°03'1313.2
2015-Feb-26 08:33N 25°58' W 079°51'1414.1
2015-Feb-26 07:33N 25°46' W 079°43'4214.0
2015-Feb-26 04:32N 25°04' W 079°37'1413.2
2015-Feb-26 03:30N 24°50' W 079°37'1313.5
2015-Feb-26 02:33N 24°43' W 079°48'  

Dump ship's entire track history